createdAt,value
2022-11-05T00:00:53.033Z,10.20
2022-11-05T00:03:31.026Z,9.60
2022-11-05T00:06:31.461Z,16.58
2022-11-05T00:09:09.897Z,7.43
2022-11-05T00:11:47.900Z,10.70
2022-11-05T00:14:26.032Z,10.13
2022-11-05T00:16:45.592Z,8.32
2022-11-05T00:19:08.804Z,8.73
2022-11-05T00:21:47.046Z,8.02
2022-11-05T00:24:25.696Z,8.35
2022-11-05T00:26:45.224Z,5.60
2022-11-05T00:29:05.208Z,6.03
2022-11-05T00:31:25.011Z,6.20
2022-11-05T00:33:44.671Z,12.27
2022-11-05T00:36:06.122Z,9.18
2022-11-05T00:38:26.099Z,9.02
2022-11-05T00:40:46.018Z,6.90
2022-11-05T00:43:24.145Z,6.00
2022-11-05T00:45:43.941Z,6.90
2022-11-05T00:48:22.318Z,7.80
2022-11-05T00:50:42.305Z,9.57
2022-11-05T00:53:02.449Z,9.77
2022-11-05T00:55:27.576Z,10.63
2022-11-05T00:57:47.639Z,11.85
2022-11-05T01:00:08.095Z,12.30
2022-11-05T01:02:27.856Z,11.90
2022-11-05T01:04:48.192Z,13.00
2022-11-05T01:07:07.921Z,9.88
2022-11-05T01:09:27.693Z,12.00
2022-11-05T01:11:47.529Z,10.02
2022-11-05T01:14:10.289Z,9.40
2022-11-05T01:16:31.219Z,7.27
2022-11-05T01:18:50.961Z,6.75
2022-11-05T01:21:15.182Z,8.90
2022-11-05T01:23:35.090Z,5.70
2022-11-05T01:25:58.007Z,7.60
2022-11-05T01:28:17.809Z,6.82
2022-11-05T01:30:37.951Z,5.25
2022-11-05T01:32:58.195Z,9.18
2022-11-05T01:35:18.346Z,12.25
2022-11-05T01:37:39.060Z,6.75
2022-11-05T01:39:58.753Z,5.72
2022-11-05T01:42:22.184Z,6.38
2022-11-05T01:44:53.138Z,4.15
2022-11-05T01:47:46.933Z,7.10
2022-11-05T01:50:32.757Z,10.85
2022-11-05T01:52:57.933Z,5.25
2022-11-05T01:55:23.401Z,6.18
2022-11-05T01:57:43.364Z,5.65
2022-11-05T02:00:04.258Z,6.32
2022-11-05T02:02:24.913Z,4.97
2022-11-05T02:04:56.752Z,3.83
2022-11-05T02:07:17.053Z,7.75
2022-11-05T02:09:50.841Z,9.30
2022-11-05T02:12:12.193Z,5.88
2022-11-05T02:14:31.914Z,7.40
2022-11-05T02:17:14.278Z,6.05
2022-11-05T02:19:53.078Z,7.63
2022-11-05T02:22:34.386Z,8.32
2022-11-05T02:25:09.378Z,7.40
2022-11-05T02:28:17.030Z,8.27
2022-11-05T02:30:49.096Z,5.35
2022-11-05T02:33:43.110Z,7.15
2022-11-05T02:36:20.425Z,5.07
2022-11-05T02:38:58.668Z,6.53
2022-11-05T02:41:38.168Z,9.27
2022-11-05T02:44:10.580Z,8.88
2022-11-05T02:46:54.443Z,9.65
2022-11-05T02:49:21.785Z,6.60
2022-11-05T02:52:00.745Z,6.18
2022-11-05T02:54:43.709Z,7.32
2022-11-05T02:57:04.545Z,6.72
2022-11-05T02:59:24.522Z,6.35
2022-11-05T03:01:46.150Z,8.13
2022-11-05T03:04:09.983Z,6.97
2022-11-05T03:06:32.620Z,7.35
2022-11-05T03:09:23.458Z,7.05
2022-11-05T03:12:04.804Z,6.80
2022-11-05T03:14:30.401Z,10.07
2022-11-05T03:17:23.245Z,8.00
2022-11-05T03:19:53.088Z,7.22
2022-11-05T03:22:22.876Z,8.10
2022-11-05T03:24:48.557Z,7.55
2022-11-05T03:27:23.155Z,7.68
2022-11-05T03:29:46.641Z,6.55
2022-11-05T03:32:07.389Z,6.60
2022-11-05T03:34:41.729Z,7.53
2022-11-05T03:37:03.357Z,7.30
2022-11-05T03:39:30.129Z,5.63
2022-11-05T03:41:53.079Z,7.70
2022-11-05T03:46:42.298Z,7.80
2022-11-05T03:49:05.772Z,6.78
2022-11-05T03:51:48.953Z,7.60
2022-11-05T03:54:09.978Z,6.20
2022-11-05T03:56:38.489Z,7.50
2022-11-05T03:59:00.995Z,6.97
2022-11-05T04:01:20.840Z,6.67
2022-11-05T04:03:40.987Z,7.32
2022-11-05T04:06:19.713Z,8.43
2022-11-05T04:08:57.811Z,6.75
2022-11-05T04:11:35.909Z,10.35
2022-11-05T04:13:55.437Z,4.65
2022-11-05T04:16:33.419Z,6.75
2022-11-05T04:18:53.008Z,7.95
2022-11-05T04:21:30.985Z,6.82
2022-11-05T04:24:09.586Z,9.45
2022-11-05T04:26:29.481Z,6.85
2022-11-05T04:29:08.564Z,5.40
2022-11-05T04:31:28.098Z,5.32
2022-11-05T04:33:47.713Z,4.22
2022-11-05T04:36:07.569Z,3.80
2022-11-05T04:38:27.127Z,6.05
2022-11-05T04:40:47.414Z,7.93
2022-11-05T04:43:13.605Z,3.35
2022-11-05T04:45:36.127Z,5.53
2022-11-05T04:47:55.699Z,5.05
2022-11-05T04:50:15.634Z,5.70
2022-11-05T04:52:35.853Z,4.65
2022-11-05T04:54:55.643Z,5.13
2022-11-05T04:57:15.295Z,4.70
2022-11-05T04:59:35.034Z,6.13
2022-11-05T05:01:54.788Z,12.10
2022-11-05T05:04:14.878Z,3.95
2022-11-05T05:06:35.779Z,7.53
2022-11-05T05:08:55.592Z,3.80
2022-11-05T05:11:17.924Z,5.93
2022-11-05T05:13:38.010Z,5.90
2022-11-05T05:15:58.347Z,4.78
2022-11-05T05:18:18.095Z,3.92
2022-11-05T05:20:56.136Z,4.55
2022-11-05T05:23:15.830Z,4.97
2022-11-05T05:25:35.507Z,5.07
2022-11-05T05:27:58.414Z,6.13
2022-11-05T05:30:18.364Z,4.55
2022-11-05T05:32:38.270Z,6.93
2022-11-05T05:34:58.058Z,4.18
2022-11-05T05:37:18.385Z,4.50
2022-11-05T05:39:38.269Z,4.65
2022-11-05T05:41:57.889Z,5.65
2022-11-05T05:44:17.595Z,5.22
2022-11-05T05:46:37.215Z,5.15
2022-11-05T05:48:56.967Z,3.95
2022-11-05T05:51:17.248Z,4.50
2022-11-05T05:53:37.958Z,4.57
2022-11-05T05:55:58.048Z,5.00
2022-11-05T05:58:18.052Z,5.30
2022-11-05T06:00:37.928Z,5.22
2022-11-05T06:02:57.690Z,4.72
2022-11-05T06:05:17.779Z,4.88
2022-11-05T06:07:37.737Z,5.43
2022-11-05T06:09:57.686Z,6.05
2022-11-05T06:12:17.310Z,6.15
2022-11-05T06:14:36.933Z,5.10
2022-11-05T06:16:56.567Z,6.07
2022-11-05T06:19:16.190Z,5.82
2022-11-05T06:21:35.905Z,5.00
2022-11-05T06:23:55.952Z,4.90
2022-11-05T06:26:17.673Z,4.43
2022-11-05T06:28:37.537Z,4.78
2022-11-05T06:30:57.628Z,4.75
2022-11-05T06:33:17.169Z,3.67
2022-11-05T06:35:36.773Z,3.45
2022-11-05T06:38:02.555Z,2.65
2022-11-05T06:40:22.732Z,4.57
2022-11-05T06:42:42.478Z,4.10
2022-11-05T06:45:02.788Z,4.43
2022-11-05T06:47:22.585Z,12.85
2022-11-05T06:49:42.397Z,3.58
2022-11-05T06:52:02.071Z,3.85
2022-11-05T06:54:22.018Z,4.13
2022-11-05T06:56:41.457Z,4.70
2022-11-05T06:59:01.246Z,2.88
2022-11-05T07:01:20.813Z,3.97
2022-11-05T07:03:41.040Z,3.55
2022-11-05T07:06:03.083Z,4.13
2022-11-05T07:08:23.406Z,3.95
2022-11-05T07:10:43.449Z,3.00
2022-11-05T07:13:07.807Z,3.88
2022-11-05T07:15:28.681Z,3.15
2022-11-05T07:17:48.439Z,4.05
2022-11-05T07:20:09.091Z,3.67
2022-11-05T07:22:28.706Z,3.25
2022-11-05T07:24:49.324Z,3.80
2022-11-05T07:27:09.127Z,3.20
2022-11-05T07:29:29.185Z,3.05
2022-11-05T07:31:48.722Z,3.72
2022-11-05T07:34:08.443Z,3.83
2022-11-05T07:36:28.060Z,7.55
2022-11-05T07:38:47.822Z,5.65
2022-11-05T07:41:07.467Z,2.97
2022-11-05T07:43:27.373Z,3.15
2022-11-05T07:45:47.158Z,2.90
2022-11-05T07:48:07.402Z,10.73
2022-11-05T07:50:29.820Z,5.38
2022-11-05T07:52:50.108Z,3.17
2022-11-05T07:55:10.609Z,2.65
2022-11-05T07:57:30.514Z,5.43
2022-11-05T07:59:50.382Z,3.92
2022-11-05T08:02:11.148Z,2.60
2022-11-05T08:04:31.271Z,2.28
2022-11-05T08:06:50.863Z,2.25
2022-11-05T08:09:10.823Z,1.90
2022-11-05T08:11:31.059Z,2.00
2022-11-05T08:13:50.966Z,2.70
2022-11-05T08:16:10.610Z,2.13
2022-11-05T08:18:31.618Z,2.30
2022-11-05T08:20:51.107Z,1.98
2022-11-05T08:23:11.053Z,2.40
2022-11-05T08:25:32.226Z,1.98
2022-11-05T08:28:06.754Z,1.88
2022-11-05T08:30:27.603Z,1.42
2022-11-05T08:32:47.371Z,2.13
2022-11-05T08:35:07.163Z,1.80
2022-11-05T08:37:27.479Z,1.30
2022-11-05T08:39:47.325Z,2.15
2022-11-05T08:42:06.832Z,1.70
2022-11-05T08:44:26.520Z,1.55
2022-11-05T08:46:46.259Z,2.05
2022-11-05T08:49:05.800Z,1.65
2022-11-05T08:51:25.607Z,2.17
2022-11-05T08:53:45.455Z,1.75
2022-11-05T08:56:05.806Z,1.70
2022-11-05T08:58:25.898Z,6.22
2022-11-05T09:00:48.242Z,1.65
2022-11-05T09:03:09.133Z,2.33
2022-11-05T09:05:30.573Z,1.63
2022-11-05T09:07:51.598Z,4.57
2022-11-05T09:10:13.153Z,7.75
2022-11-05T09:12:32.892Z,7.40
2022-11-05T09:14:52.567Z,4.22
2022-11-05T09:17:17.409Z,5.95
2022-11-05T09:19:40.078Z,2.70
2022-11-05T09:22:00.139Z,1.42
2022-11-05T09:24:20.112Z,2.10
2022-11-05T09:26:39.753Z,3.83
2022-11-05T09:28:59.320Z,2.15
2022-11-05T09:31:18.922Z,1.35
2022-11-05T09:33:40.919Z,1.40
2022-11-05T09:36:00.890Z,1.73
2022-11-05T09:38:20.829Z,1.55
2022-11-05T09:41:01.839Z,1.40
2022-11-05T09:43:43.602Z,1.30
2022-11-05T09:46:26.395Z,1.70
2022-11-05T09:48:54.521Z,1.63
2022-11-05T09:51:20.725Z,2.35
2022-11-05T09:53:44.624Z,1.50
2022-11-05T09:56:10.382Z,1.80
2022-11-05T09:58:47.987Z,1.15
2022-11-05T10:01:13.995Z,12.57
2022-11-05T10:03:38.610Z,2.47
2022-11-05T10:06:07.456Z,1.60
2022-11-05T10:08:31.984Z,1.60
2022-11-05T10:11:02.133Z,1.23
2022-11-05T10:13:32.537Z,1.70
2022-11-05T10:16:01.357Z,2.05
2022-11-05T10:18:34.066Z,1.52
2022-11-05T10:20:55.245Z,1.30
2022-11-05T10:23:17.965Z,3.25
2022-11-05T10:25:43.832Z,2.75
2022-11-05T10:28:05.301Z,2.72
2022-11-05T10:30:25.329Z,3.88
2022-11-05T10:32:47.085Z,1.52
2022-11-05T10:35:12.433Z,3.35
2022-11-05T10:37:36.952Z,2.35
2022-11-05T10:40:00.085Z,1.83
2022-11-05T10:42:44.223Z,1.52
2022-11-05T10:45:07.301Z,2.38
2022-11-05T10:48:12.470Z,3.17
2022-11-05T10:50:33.690Z,1.70
2022-11-05T10:53:22.566Z,1.65
2022-11-05T10:55:46.912Z,1.70
2022-11-05T10:58:29.392Z,1.95
2022-11-05T11:00:49.048Z,3.03
2022-11-05T11:03:44.705Z,1.70
2022-11-05T11:06:14.302Z,1.58
2022-11-05T11:08:36.095Z,1.73
2022-11-05T11:11:03.524Z,1.40
2022-11-05T11:13:51.600Z,1.20
2022-11-05T11:16:26.689Z,1.88
2022-11-05T11:18:51.984Z,1.60
2022-11-05T11:21:22.519Z,1.48
2022-11-05T11:23:52.209Z,1.50
2022-11-05T11:26:13.058Z,1.52
2022-11-05T11:28:43.160Z,1.80
2022-11-05T11:31:13.393Z,1.42
2022-11-05T11:33:34.273Z,1.15
2022-11-05T11:35:54.900Z,1.67
2022-11-05T11:38:16.871Z,1.45
2022-11-05T11:40:38.149Z,1.10
2022-11-05T11:43:02.459Z,1.10
2022-11-05T11:45:28.191Z,1.20
2022-11-05T11:47:50.128Z,1.20
2022-11-05T11:50:40.763Z,1.20
2022-11-05T11:53:19.309Z,1.20
2022-11-05T11:55:39.174Z,1.20
2022-11-05T11:58:07.517Z,1.88
2022-11-05T12:00:28.454Z,1.30
2022-11-05T12:03:06.707Z,1.50
2022-11-05T12:05:37.094Z,3.13
2022-11-05T12:08:15.646Z,1.13
2022-11-05T12:11:02.401Z,2.25
2022-11-05T12:13:22.358Z,1.10
2022-11-05T12:16:00.037Z,1.10
2022-11-05T12:18:50.945Z,1.00
2022-11-05T12:21:53.012Z,1.10
2022-11-05T12:24:38.484Z,2.67
2022-11-05T12:27:30.732Z,1.48
2022-11-05T12:30:06.833Z,1.10
2022-11-05T12:32:45.009Z,1.45
2022-11-05T12:35:15.971Z,1.10
2022-11-05T12:38:06.732Z,1.00
2022-11-05T12:40:54.367Z,1.60
2022-11-05T12:43:56.138Z,1.17
2022-11-05T12:46:37.922Z,1.10
2022-11-05T12:49:10.001Z,1.65
2022-11-05T12:51:41.413Z,1.15
2022-11-05T12:54:14.435Z,1.10
2022-11-05T12:56:38.514Z,1.40
2022-11-05T12:59:27.775Z,1.40
2022-11-05T13:02:01.700Z,2.13
2022-11-05T13:04:43.371Z,2.25
2022-11-05T13:07:09.105Z,1.10
2022-11-05T13:09:38.381Z,1.40
2022-11-05T13:12:12.784Z,3.33
2022-11-05T13:14:53.688Z,8.05
2022-11-05T13:17:54.726Z,12.52
2022-11-05T13:20:37.902Z,2.60
2022-11-05T13:22:57.554Z,9.38
2022-11-05T13:25:30.663Z,3.97
2022-11-05T13:30:37.603Z,2.15
2022-11-05T13:33:13.237Z,1.20
2022-11-05T13:36:15.353Z,1.10
2022-11-05T13:38:54.066Z,1.42
2022-11-05T13:41:44.118Z,1.55
2022-11-05T13:44:07.254Z,1.20
2022-11-05T13:49:54.623Z,1.40
2022-11-05T13:52:34.002Z,1.00
2022-11-05T13:55:25.645Z,1.00
2022-11-05T13:58:07.087Z,1.20
2022-11-05T14:00:29.812Z,1.00
2022-11-05T14:02:52.311Z,1.20
2022-11-05T14:05:34.697Z,1.80
2022-11-05T14:07:55.973Z,1.15
2022-11-05T14:10:34.187Z,1.90
2022-11-05T14:12:57.008Z,1.20
2022-11-05T14:15:30.309Z,1.10
2022-11-05T14:18:00.335Z,1.58
2022-11-05T14:20:32.536Z,1.00
2022-11-05T14:22:52.831Z,1.00
2022-11-05T14:25:18.644Z,1.02
2022-11-05T14:27:38.284Z,1.00
2022-11-05T14:29:58.157Z,1.10
2022-11-05T14:32:20.522Z,1.30
2022-11-05T14:35:22.069Z,2.22
2022-11-05T14:37:53.210Z,1.20
2022-11-05T14:40:21.840Z,1.20
2022-11-05T14:42:51.031Z,1.30
2022-11-05T14:45:14.231Z,2.22
2022-11-05T14:47:39.921Z,1.10
2022-11-05T14:50:10.832Z,3.38
2022-11-05T14:52:31.584Z,1.10
2022-11-05T14:54:56.221Z,1.10
2022-11-05T14:57:41.535Z,1.10
2022-11-05T15:00:01.894Z,1.20
2022-11-05T15:02:26.658Z,1.90
2022-11-05T15:04:47.264Z,1.80
2022-11-05T15:07:07.243Z,1.13
2022-11-05T15:09:49.052Z,1.30
2022-11-05T15:12:27.860Z,1.30
2022-11-05T15:15:21.302Z,1.02
2022-11-05T15:18:15.308Z,9.45
2022-11-05T15:20:44.373Z,1.30
2022-11-05T15:23:07.253Z,1.88
2022-11-05T15:25:53.115Z,1.27
2022-11-05T15:28:24.114Z,2.53
2022-11-05T15:30:59.727Z,1.60
2022-11-05T15:33:21.233Z,1.10
2022-11-05T15:35:41.517Z,1.20
2022-11-05T15:38:02.655Z,1.63
2022-11-05T15:40:31.554Z,1.48
2022-11-05T15:43:18.905Z,2.38
2022-11-05T15:45:39.398Z,1.10
2022-11-05T15:47:59.268Z,1.45
2022-11-05T15:50:19.125Z,1.45
2022-11-05T15:52:47.303Z,1.95
2022-11-05T15:55:12.403Z,2.55
2022-11-05T15:57:32.455Z,2.00
2022-11-05T15:59:52.717Z,2.22
2022-11-05T16:02:15.250Z,2.80
2022-11-05T16:04:35.996Z,2.22
2022-11-05T16:06:58.960Z,3.45
2022-11-05T16:09:30.288Z,3.50
2022-11-05T16:12:10.937Z,4.30
2022-11-05T16:14:34.630Z,3.83
2022-11-05T16:16:54.249Z,2.00
2022-11-05T16:19:47.464Z,1.77
2022-11-05T16:22:07.817Z,1.40
2022-11-05T16:24:29.463Z,2.15
2022-11-05T16:27:04.179Z,1.10
2022-11-05T16:29:28.915Z,2.17
2022-11-05T16:31:50.318Z,1.55
2022-11-05T16:34:26.930Z,1.58
2022-11-05T16:36:46.666Z,1.40
2022-11-05T16:39:08.662Z,1.95
2022-11-05T16:41:28.301Z,1.95
2022-11-05T16:43:59.123Z,1.20
2022-11-05T16:46:20.241Z,1.75
2022-11-05T16:48:40.334Z,3.63
2022-11-05T16:50:59.987Z,1.50
2022-11-05T16:53:20.069Z,1.73
2022-11-05T16:55:42.066Z,1.50
2022-11-05T16:58:01.896Z,14.73
2022-11-05T17:00:22.925Z,7.32
2022-11-05T17:02:43.509Z,5.05
2022-11-05T17:05:03.357Z,1.40
2022-11-05T17:07:23.450Z,2.13
2022-11-05T17:09:43.023Z,4.72
2022-11-05T17:12:02.779Z,3.60
2022-11-05T17:14:22.564Z,2.50
2022-11-05T17:16:42.306Z,2.20
2022-11-05T17:19:02.227Z,1.60
2022-11-05T17:21:21.954Z,2.15
2022-11-05T17:23:41.556Z,2.55
2022-11-05T17:26:06.172Z,15.50
2022-11-05T17:28:27.291Z,6.85
2022-11-05T17:30:52.882Z,2.00
2022-11-05T17:33:13.841Z,2.35
2022-11-05T17:35:36.736Z,2.17
2022-11-05T17:37:56.643Z,1.50
2022-11-05T17:40:19.164Z,2.22
2022-11-05T17:42:39.508Z,2.80
2022-11-05T17:44:59.594Z,2.08
2022-11-05T17:47:19.453Z,2.85
2022-11-05T17:49:39.684Z,6.30
2022-11-05T17:51:59.441Z,5.72
2022-11-05T17:54:19.076Z,5.03
2022-11-05T17:56:44.748Z,5.80
2022-11-05T17:59:05.164Z,6.35
2022-11-05T18:01:28.365Z,2.42
2022-11-05T18:03:48.499Z,1.98
2022-11-05T18:06:08.439Z,2.45
2022-11-05T18:08:28.386Z,1.63
2022-11-05T18:10:48.594Z,2.65
2022-11-05T18:13:10.113Z,1.80
2022-11-05T18:15:30.512Z,2.10
2022-11-05T18:17:50.215Z,2.10
2022-11-05T18:20:17.372Z,2.13
2022-11-05T18:22:39.379Z,1.83
2022-11-05T18:24:59.542Z,2.10
2022-11-05T18:27:19.503Z,1.55
2022-11-05T18:29:39.157Z,1.63
2022-11-05T18:31:59.008Z,1.50
2022-11-05T18:34:18.739Z,1.27
2022-11-05T18:36:38.284Z,1.80
2022-11-05T18:39:00.137Z,2.00
2022-11-05T18:41:20.904Z,4.38
2022-11-05T18:43:41.003Z,3.40
2022-11-05T18:46:00.938Z,2.58
2022-11-05T18:48:20.446Z,3.35
2022-11-05T18:50:40.020Z,3.58
2022-11-05T18:52:59.940Z,5.63
2022-11-05T18:55:20.367Z,3.35
2022-11-05T18:57:39.819Z,1.77
2022-11-05T18:59:59.683Z,1.33
2022-11-05T19:02:19.683Z,9.40
2022-11-05T19:04:50.513Z,7.07
2022-11-05T19:07:15.108Z,10.60
2022-11-05T19:09:36.316Z,3.20
2022-11-05T19:11:56.451Z,4.47
2022-11-05T19:14:16.816Z,4.45
2022-11-05T19:16:36.868Z,3.35
2022-11-05T19:19:01.804Z,1.90
2022-11-05T19:21:24.031Z,3.60
2022-11-05T19:23:44.316Z,2.00
2022-11-05T19:26:10.072Z,3.20
2022-11-05T19:28:29.691Z,1.90
2022-11-05T19:30:49.185Z,1.90
2022-11-05T19:33:08.780Z,2.38
2022-11-05T19:35:29.776Z,2.00
2022-11-05T19:37:52.863Z,1.80
2022-11-05T19:42:32.517Z,5.43
2022-11-05T19:44:52.137Z,3.35
2022-11-05T19:47:11.809Z,4.32
2022-11-05T19:49:31.736Z,2.13
2022-11-05T19:51:51.427Z,2.25
2022-11-05T19:54:11.353Z,1.70
2022-11-05T19:56:33.111Z,2.67
2022-11-05T19:58:53.649Z,4.30
2022-11-05T20:01:15.180Z,6.15
2022-11-05T20:03:36.905Z,1.75
2022-11-05T20:06:08.304Z,3.55
2022-11-05T20:08:28.543Z,11.40
2022-11-05T20:10:53.902Z,8.98
2022-11-05T20:13:19.598Z,14.85
2022-11-05T20:15:39.836Z,7.93
2022-11-05T20:17:59.791Z,5.43
2022-11-05T20:20:20.148Z,2.55
2022-11-05T20:22:39.895Z,3.50
2022-11-05T20:24:59.525Z,12.50
2022-11-05T20:27:19.378Z,6.38
2022-11-05T20:29:39.229Z,6.80
2022-11-05T20:31:59.133Z,2.17
2022-11-05T20:34:19.028Z,3.85
2022-11-05T20:36:39.644Z,2.55
2022-11-05T20:38:59.169Z,3.70
2022-11-05T20:41:18.957Z,5.18
2022-11-05T20:43:43.051Z,1.83
2022-11-05T20:46:03.762Z,1.70
2022-11-05T20:48:23.526Z,2.08
2022-11-05T20:50:45.621Z,1.83
2022-11-05T20:53:05.458Z,1.47
2022-11-05T20:55:25.163Z,1.95
2022-11-05T20:57:44.697Z,1.80
2022-11-05T21:00:06.619Z,1.45
2022-11-05T21:02:27.030Z,2.03
2022-11-05T21:04:47.080Z,3.58
2022-11-05T21:07:06.968Z,1.60
2022-11-05T21:09:27.070Z,3.00
2022-11-05T21:12:06.045Z,1.67
2022-11-05T21:14:26.475Z,2.03
2022-11-05T21:16:46.535Z,1.30
2022-11-05T21:19:06.917Z,1.40
2022-11-05T21:21:27.045Z,1.50
2022-11-05T21:23:47.030Z,1.60
2022-11-05T21:26:09.325Z,1.40
2022-11-05T21:28:29.283Z,1.52
2022-11-05T21:30:49.182Z,2.05
2022-11-05T21:33:08.948Z,1.40
2022-11-05T21:35:28.705Z,1.40
2022-11-05T21:37:48.261Z,2.03
2022-11-05T21:40:08.668Z,1.85
2022-11-05T21:42:29.306Z,1.30
2022-11-05T21:44:49.112Z,1.88
2022-11-05T21:47:08.977Z,1.30
2022-11-05T21:49:28.950Z,1.45
2022-11-05T21:52:07.059Z,1.67
2022-11-05T21:54:45.526Z,2.55
2022-11-05T21:57:26.401Z,1.70
2022-11-05T21:59:49.017Z,1.60
2022-11-05T22:02:10.767Z,1.50
2022-11-05T22:04:32.990Z,2.00
2022-11-05T22:06:53.402Z,3.15
2022-11-05T22:09:13.196Z,1.48
2022-11-05T22:11:37.244Z,2.92
2022-11-05T22:13:57.328Z,1.40
2022-11-05T22:16:16.986Z,1.45
2022-11-05T22:18:36.816Z,2.20
2022-11-05T22:20:56.609Z,2.50
2022-11-05T22:23:16.684Z,2.55
2022-11-05T22:25:36.645Z,1.40
2022-11-05T22:27:56.423Z,1.35
2022-11-05T22:30:16.335Z,2.65
2022-11-05T22:32:37.243Z,1.70
2022-11-05T22:34:57.387Z,2.25
2022-11-05T22:37:17.292Z,1.50
2022-11-05T22:39:37.058Z,5.22
2022-11-05T22:41:57.648Z,1.30
2022-11-05T22:44:17.670Z,1.25
2022-11-05T22:46:38.137Z,1.10
2022-11-05T22:48:59.159Z,1.42
2022-11-05T22:51:25.409Z,1.70
2022-11-05T22:53:45.938Z,1.38
2022-11-05T22:56:07.860Z,1.48
2022-11-05T22:58:27.366Z,1.40
2022-11-05T23:00:47.437Z,2.25
2022-11-05T23:03:07.666Z,1.73
2022-11-05T23:05:27.443Z,3.00
2022-11-05T23:08:05.521Z,2.28
2022-11-05T23:10:43.730Z,1.67
2022-11-05T23:13:04.303Z,1.92
2022-11-05T23:15:42.959Z,1.67
2022-11-05T23:18:21.936Z,1.65
2022-11-05T23:21:00.092Z,1.20
2022-11-05T23:23:38.338Z,2.53
2022-11-05T23:26:21.465Z,1.30
2022-11-05T23:28:41.504Z,1.25
2022-11-05T23:31:19.879Z,1.25
2022-11-05T23:33:39.566Z,1.40
2022-11-05T23:36:18.013Z,1.65
2022-11-05T23:38:37.944Z,1.33
2022-11-05T23:41:20.256Z,2.03
2022-11-05T23:43:58.624Z,1.60
2022-11-05T23:46:36.664Z,1.77
2022-11-05T23:48:56.416Z,1.20
2022-11-05T23:51:17.101Z,1.33
2022-11-05T23:53:39.339Z,1.40
2022-11-05T23:56:17.282Z,11.60
2022-11-05T23:58:37.821Z,1.48
